Manuel Aguirre

Chefscout - Danubio
22 Nov 2026
Sonntag
Verarbeitung

Persönlichkeit

Anpassungsfähigkeit (17) Ehrgeiz (1) Kontroverse (13) Loyalität (9) Druck (2) Professionalität (9) Fairness (18) Temperament (3)

Profil

Trainerstil Demokratisch
Lizenz Kontinentale Pro
Entschlossenheit 11
Menschenführung 12
Motivation 12
Disziplin 10
Arbeitszufriedenheit
80%
Ermüdung
0%
Rolle Chefscout
Gehalt 81.6K p/W
Vertrag 14.03.2027

Leistung

Verhalten Gut
Trainingseffektivität
34%
Spielerentwicklung
20%
Verletzungsprävention
30%
Taktische Umsetzung
60%

Letzte Ereignisse

Spieler begutachtet jetzt
Spieler begutachtet jetzt
Spieler begutachtet jetzt
Spieler begutachtet jetzt
Spieler begutachtet 7T her
Spieler begutachtet 7T her
Spieler begutachtet 7T her
Spieler begutachtet 7T her

Aktuell beobachtet

156
Spieler Verein Status Fähigkeit Vertrauen Beobachtet Zuletzt beobachtet Letzte Stimme
Kasper Høgh Bloemfontein Celtic Aktiv 147 / 122 40% 3 21.11.2026 -
Diego Abella Chiapas Aktiv 90 / 111 40% 4 21.11.2026 -
Rocco Vata Watford Aktiv 129 / 121 40% 2 21.11.2026 -
Jalal Abdullai Molde Aktiv 106 / 116 40% 1 21.11.2026 -
Ryan Oné Sheffield United Aktiv 117 / 122 40% 1 21.11.2026 -
Elijah Adebayo Luton Town Aktiv 112 / 131 40% 1 21.11.2026 -
Seedy Jatta Sturm Graz Aktiv 129 / 126 40% 3 20.11.2026 -
Peter Valjent FK Senica Aktiv 131 / 135 40% 3 20.11.2026 -
Fabrizio Cavegn Bristol Rovers Aktiv 114 / 121 40% 1 20.11.2026 -
Justin-Noël Kalumba Mallorca Aktiv 113 / 116 40% 2 19.11.2026 -
Ramadan Ashour Masr El Makasa Aktiv 109 / 120 40% 2 19.11.2026 -
Erik Botheim Viking Aktiv 117 / 135 40% 1 19.11.2026 -
Matheus Alves CSKA Moscow Aktiv 114 / 133 40% 3 18.11.2026 -
Thiago Salischiker Rucci Lucko Aktiv 101 / 103 40% 1 18.11.2026 -
Marko Brkić NK Krka Aktiv 77 / 99 40% 1 18.11.2026 -
Brayan León Mamelodi Sundowns Aktiv 110 / 120 40% 5 16.11.2026 -
Andrés Molinas Gabala Aktiv 90 / 114 40% 2 16.11.2026 -
Lazar Tufegdžić Cukaricki Aktiv 100 / 121 40% 1 16.11.2026 -
Prince Adu Kwabena Viktoria Plzen Aktiv 122 / 139 40% 2 15.11.2026 -
Gonzalo Plata Dinamo Moscow Aktiv 123 / 126 40% 1 15.11.2026 -
Juan-José Perea Zurich Aktiv 111 / 133 40% 1 15.11.2026 -
Mateus Mané Burnley Aktiv 134 / 126 40% 1 15.11.2026 -
Percy Khune Platinum Stars Aktiv 62 / 64 40% 1 15.11.2026 -
Iwan Morgan Grimsby Town Aktiv 117 / 101 40% 1 15.11.2026 -
Johannes Eggestein Austria Wien Aktiv 126 / 136 40% 3 13.11.2026 -
Percy Vilakazi Free State Stars Aktiv 124 / 109 40% 3 13.11.2026 -
Jonathan Dellarossa Lokomotiv Plovdiv Aktiv 125 / 105 40% 6 11.11.2026 -
Richard Koné Queens Park Rangers Aktiv 109 / 121 40% 1 11.11.2026 -
Cristian Iguarán Union Magdalena Aktiv 112 / 106 40% 3 10.11.2026 -
Dylan Cabral Arsenal Aktiv 94 / 95 40% 2 10.11.2026 -
Paolo Yrizar Chernomorets Aktiv 91 / 104 40% 1 10.11.2026 -
Mathias Jørgensen Blackburn Rovers Aktiv 114 / 104 40% 1 10.11.2026 -
Edison Gruezo Queretaro Aktiv 103 / 110 40% 1 10.11.2026 -
Ezekiel Kwame Alladoh Philadelphia Union Aktiv 122 / 120 40% 1 10.11.2026 -
Youssoufa Moukoko FC Copenhagen Aktiv 114 / 121 40% 2 08.11.2026 -
Aaron Connolly Leyton Orient Aktiv 130 / 122 40% 1 08.11.2026 -
Aldo Encinas Pachuca Aktiv 88 / 75 40% 1 08.11.2026 -
Babis Kostoulas Brighton Aktiv 117 / 128 40% 1 08.11.2026 -
Tobías Ramírez River Plate Aktiv 127 / 130 40% 1 08.11.2026 -
Joel Godoy Sarmiento Aktiv 107 / 115 40% 1 08.11.2026 -
Agustín Medina Lanús Aktiv 118 / 134 40% 1 08.11.2026 -
Csanád Vilmos Dénes Debrecen Aktiv 107 / 101 40% 2 05.11.2026 -
Ignacio Copetti Central Córdoba SdE Aktiv 83 / 99 40% 1 05.11.2026 -
Dom Ballard Leyton Orient Aktiv 106 / 132 40% 1 05.11.2026 -
Exequiel Zeballos Monza Aktiv 127 / 145 40% 1 05.11.2026 -
Eric Ramírez Ankaragucu Aktiv 106 / 130 40% 3 04.11.2026 -
Brayan Alcócer Oleksandriya Aktiv 116 / 115 40% 1 04.11.2026 -
Samuel Asamoah WAFA Aktiv 91 / 104 40% 1 04.11.2026 -
Sota Kitano Red Bull Salzburg Aktiv 136 / 125 40% 4 02.11.2026 -
Nikolay Zlatev Cherno More Aktiv 98 / 96 40% 1 02.11.2026 -
Róyner Benítez Aguilas Doradas Aktiv 102 / 117 40% 1 02.11.2026 -
Ricardo Solbes Unión de Santa Fe Aktiv 95 / 111 40% 1 02.11.2026 -
Jackson Muleka Konyaspor Aktiv 134 / 120 40% 1 29.10.2026 -
Ammar Ramadan DAC Dunajska Streda Aktiv 129 / 129 40% 1 29.10.2026 -
Marcos Gómez Lucko Aktiv 83 / 112 40% 2 28.10.2026 -
Shion Shinkawa Sint-Truiden Aktiv 117 / 118 40% 1 28.10.2026 -
Ramón Villalba Teplice Aktiv 87 / 110 40% 4 26.10.2026 -
Talles Magno New York City Aktiv 133 / 129 40% 1 26.10.2026 -
Maximiliano Rodríguez Huachipato Aktiv 120 / 114 40% 3 23.10.2026 -
Matías Contrera Hrvatski Dragovoljac Aktiv 83 / 95 40% 2 23.10.2026 -
Michael Vadulli Audax Italiano Aktiv 105 / 101 40% 4 23.10.2026 -
Etiosa Ighodaro Kaizer Chiefs Aktiv 123 / 125 40% 1 22.10.2026 -
Luca Langoni New England Revolution Aktiv 120 / 130 40% 1 22.10.2026 -
Assad Al Hamlawi Universitatea Craiova Aktiv 108 / 107 40% 1 21.10.2026 -
Alexis Devesa Aldosivi Aktiv 86 / 91 40% 1 21.10.2026 -
Miloš Jovičić Zabbar St. Patrick Aktiv 101 / 88 40% 1 21.10.2026 -
Tamas Kleinheisler Haladas Aktiv 104 / 128 40% 1 20.10.2026 -
Milciades Adorno Guarani Aktiv 99 / 103 40% 1 20.10.2026 -
Agustín Hausch Defensa y Justicia Aktiv 124 / 119 40% 3 19.10.2026 -
Irakli Kiteishvili Tskhinvali Aktiv 81 / 90 40% 1 18.10.2026 -
Jonás Miszczuk River Plate Aktiv 98 / 109 40% 1 18.10.2026 -
Federico Girotti Alianza Lima Aktiv 130 / 117 40% 2 16.10.2026 -
Justo Giani Umraniyespor Aktiv 134 / 134 40% 5 15.10.2026 -
Luka Jović CFR Cluj Aktiv 130 / 117 40% 2 15.10.2026 -
Karim Konaté Red Bull Salzburg Aktiv 131 / 120 40% 1 15.10.2026 -
Dion Beljo Dinamo Zagreb Aktiv 144 / 132 40% 2 12.10.2026 -
Mario Galeano Los Andes Aktiv 106 / 116 40% 1 12.10.2026 -
Clemente Montes Universidad Catolica Aktiv 129 / 123 40% 2 11.10.2026 -
Robertino Giacomini Panserraikos Aktiv 90 / 82 40% 1 10.10.2026 -
Josh Sargent Toronto FC Aktiv 119 / 140 40% 1 10.10.2026 -
Kermit Mokoena Ajax Cape Town Aktiv 121 / 114 40% 1 09.10.2026 -
Tadeo Allende Inter Miami CF Aktiv 134 / 125 40% 3 08.10.2026 -
Juan Cruz Zurbriggen San Telmo Aktiv 95 / 111 40% 1 08.10.2026 -
Job Ochieng Real Sociedad Aktiv 103 / 99 40% 2 07.10.2026 -
Luciano Pereyra AEL Larisa Aktiv 100 / 91 40% 1 07.10.2026 -
Daniel Karlsbakk Sarpsborg 08 Aktiv 121 / 139 40% 1 07.10.2026 -
Everton Bala Levski Aktiv 120 / 126 40% 1 06.10.2026 -
Mostafa Mohamed Konyaspor Aktiv 133 / 111 40% 1 05.10.2026 -
Agustín Anello Philadelphia Union Aktiv 112 / 128 40% 1 04.10.2026 -
João Klauss LA Galaxy Aktiv 128 / 121 40% 1 04.10.2026 -
Kerwin Vargas Charlotte Football Club Aktiv 136 / 122 40% 2 03.10.2026 -
Juan Cruz de los Santos Nacional Aktiv 131 / 128 40% 1 03.10.2026 -
Esteban Obregón Montevideo City Torque Aktiv 120 / 124 40% 1 30.09.2026 -
Julián Brea Cobresal Aktiv 97 / 115 40% 1 30.09.2026 -
Luciano Gondou CSKA Moscow Aktiv 138 / 121 40% 1 29.09.2026 -
Leonardo Campana New England Revolution Aktiv 136 / 122 40% 1 27.09.2026 -
Mojmír Chytil Slavia Prague Aktiv 147 / 121 40% 1 27.09.2026 -
Jhojan Julio Queretaro Aktiv 113 / 118 40% 4 26.09.2026 -
Diego González San Luis Aktiv 96 / 112 40% 1 26.09.2026 -
Bruno Larregui Juventud Aktiv 128 / 119 40% 1 26.09.2026 -
Juninho Pumas UNAM Aktiv 138 / 114 40% 2 25.09.2026 -
Agustín Venezia Iquique Aktiv 109 / 103 40% 1 25.09.2026 -
José Alvarado Leon Aktiv 117 / 121 40% 2 23.09.2026 -
Adalberto Peñaranda Deportivo Tachira Aktiv 116 / 105 40% 1 23.09.2026 -
Mourad Tijuana Aktiv 110 / 132 40% 3 18.09.2026 -
Dejan Joveljić Seattle Sounders Aktiv 135 / 123 40% 1 17.09.2026 -
Martín Garnerone Estudiantes Aktiv 119 / 114 40% 1 15.09.2026 -
Roberto de la Rosa Monterrey Aktiv 122 / 122 40% 1 15.09.2026 -
Alberto Ocejo Santos Laguna Aktiv 112 / 107 40% 1 13.09.2026 -
José Rivas Gamboa Trujillanos Aktiv 96 / 95 40% 2 12.09.2026 -
José Balza Deportivo Tachira Aktiv 106 / 103 40% 1 12.09.2026 -
Bénie Traoré New York City Aktiv 130 / 117 40% 1 12.09.2026 -
Ismael Díaz Leon Aktiv 130 / 110 40% 2 11.09.2026 -
Enzo Larrosa Independiente Medellin Aktiv 101 / 104 40% 1 11.09.2026 -
Fernando Mimbacas Juventud Aktiv 119 / 120 40% 1 11.09.2026 -
Uriel Antuna Pumas UNAM Aktiv 127 / 122 40% 3 10.09.2026 -
Federico Viñas Toluca Aktiv 137 / 124 40% 1 10.09.2026 -
Erik Bodencer Central Norte Aktiv 113 / 112 40% 1 09.09.2026 -
Lucas Di Yorio Santos Laguna Aktiv 106 / 117 40% 1 07.09.2026 -
Alejandro Cantero Huesca Aktiv 115 / 109 40% 1 07.09.2026 -
Christian Ebere Cruz Azul Aktiv 123 / 130 40% 1 06.09.2026 -
Jáder Valencia Deportes Tolima Aktiv 118 / 104 40% 1 06.09.2026 -
Florián Monzón Atlas Aktiv 115 / 109 40% 1 06.09.2026 -
Marcus Vinicius Deportivo Pereira Aktiv 121 / 121 40% 2 02.09.2026 -
Sebastián Ferreira Olimpia Aktiv 124 / 127 40% 1 02.09.2026 -
César Magallan Estudiantes de Merida Aktiv 100 / 106 40% 1 01.09.2026 -
Guillermo Paiva Junior Aktiv 117 / 113 40% 1 30.08.2026 -
Alejo Cruz Juventud Aktiv 118 / 130 40% 1 30.08.2026 -
Ronaldo Peña Deportivo Lara Aktiv 106 / 105 40% 2 26.08.2026 -
Luis Iberico Sporting Cristal Aktiv 111 / 118 40% 1 26.08.2026 -
Jefry Zapata Once Caldas Aktiv 121 / 127 40% 3 24.08.2026 -
Jesus Ferreira Seattle Sounders Aktiv 137 / 146 40% 1 24.08.2026 -
Jorge Obregón Deportivo Pasto Aktiv 110 / 108 40% 1 22.08.2026 -
Lucas Besozzi Lanús Aktiv 110 / 123 40% 1 22.08.2026 -
Felipe Valencia Cortulua Aktiv 125 / 127 40% 2 20.08.2026 -
Mauricio Márquez Caracas Aktiv 109 / 100 40% 1 20.08.2026 -
Jonatan Torres Cerro Porteno Aktiv 118 / 132 40% 1 20.08.2026 -
Patrick Preciado Deportivo Pasto Aktiv 98 / 102 40% 2 18.08.2026 -
Richard Sanchez Cortulua Aktiv 123 / 128 40% 2 17.08.2026 -
Alejandro Rincon Llaneros Aktiv 93 / 103 40% 1 17.08.2026 -
Ramiro Ruiz Rodríguez Atlético Tucumán Aktiv 128 / 118 40% 1 15.08.2026 -
Michael Nike Patriotas Aktiv 105 / 105 40% 1 15.08.2026 -
Ryan Mmaee Atlas Aktiv 104 / 130 40% 1 14.08.2026 -
Santiago González Sporting Cristal Aktiv 119 / 119 40% 1 13.08.2026 -
Duk Atlas Aktiv 107 / 120 40% 1 12.08.2026 -
Francisco Valencia Universitario Popayan Aktiv 123 / 118 40% 1 12.08.2026 -
Alan Cantero Alianza Lima Aktiv 118 / 111 40% 1 10.08.2026 -
Ronny Maza Aragua Aktiv 94 / 86 40% 1 09.08.2026 -
Adrián Parra Deportes Tolima Aktiv 119 / 127 40% 1 06.08.2026 -
Iván Maggi Sportivo Luqueno Aktiv 117 / 110 40% 1 06.08.2026 -
Luis Ramos Alianza Lima Aktiv 120 / 119 40% 1 06.08.2026 -
Santiago Córdoba Deportivo Pasto Aktiv 108 / 93 40% 1 04.08.2026 -
Sebastián Lentinelly Olimpia Aktiv 107 / 110 40% 1 03.08.2026 -
Lucas Bruera Carabobo Aktiv 111 / 124 40% 1 03.08.2026 -
José Hernández Queretaro Aktiv 101 / 115 40% 1 01.08.2026 -
Miguel Acosta Argentinos Juniors Aktiv 111 / 114 40% 1 01.08.2026 -